Time;durP1;ratioP1;P1;durP2;ratioP2;P2;SDS_P1;SDS_P2;PMS_P1;PMS_P2;Temp;Humidity;BMP_temperature;BMP_pressure;BME280_temperature;BME280_humidity;BME280_pressure;Samples;Min_cycle;Max_cycle;Signal;HPM_P1;HPM_P2
2023/11/19 00:00:31;;;;;;;30.07;18.03;;;;;;;1.68;80.22;101041.97;5104170;28;20303;-76
2023/11/19 00:03:01;;;;;;;30.80;19.70;;;;;;;1.67;79.19;101040.25;5109815;28;20222;-76
2023/11/19 00:05:29;;;;;;;31.80;18.63;;;;;;;1.65;78.92;101044.38;5095313;28;20224;-74
2023/11/19 00:07:57;;;;;;;33.73;18.83;;;;;;;1.64;79.69;101040.97;5099848;28;20216;-73
2023/11/19 00:10:25;;;;;;;33.10;19.20;;;;;;;1.62;79.79;101041.69;5092382;28;20220;-73
2023/11/19 00:12:56;;;;;;;32.93;19.67;;;;;;;1.57;79.50;101045.75;5092564;28;20231;-75
2023/11/19 00:15:25;;;;;;;36.00;20.23;;;;;;;1.58;80.37;101050.88;5097778;28;20231;-72
2023/11/19 00:17:53;;;;;;;34.00;19.13;;;;;;;1.62;80.14;101051.88;5099922;28;20201;-71
2023/11/19 00:20:27;;;;;;;30.93;20.10;;;;;;;1.67;79.71;101045.31;5111015;28;20244;-71
2023/11/19 00:22:55;;;;;;;32.80;20.47;;;;;;;1.68;80.21;101041.97;5112857;28;20551;-72
2023/11/19 00:25:23;;;;;;;30.83;18.93;;;;;;;1.66;80.04;101035.97;5095903;28;20655;-72
2023/11/19 00:27:53;;;;;;;31.43;19.60;;;;;;;1.72;80.19;101040.41;5112968;27;20676;-72
2023/11/19 00:30:22;;;;;;;30.33;19.03;;;;;;;1.71;80.05;101031.94;5094619;28;20196;-72
2023/11/19 00:32:50;;;;;;;29.20;19.23;;;;;;;1.72;80.55;101038.75;5106358;28;20584;-72
2023/11/19 00:35:18;;;;;;;30.57;19.43;;;;;;;1.74;80.68;101029.50;5096399;28;20208;-72
2023/11/19 00:37:47;;;;;;;36.97;20.93;;;;;;;1.75;80.76;101012.59;5102303;28;20208;-73
2023/11/19 00:40:18;;;;;;;34.73;20.27;;;;;;;1.72;79.55;101004.84;5126968;28;20769;-71
2023/11/19 00:42:47;;;;;;;35.03;19.77;;;;;;;1.65;79.26;100996.13;5100239;28;20608;-73
2023/11/19 00:45:15;;;;;;;36.00;20.23;;;;;;;1.58;80.10;101007.69;5107158;28;20208;-72
2023/11/19 00:47:43;;;;;;;34.40;19.30;;;;;;;1.52;80.15;101004.06;5093579;28;20228;-74
2023/11/19 00:50:13;;;;;;;37.07;20.47;;;;;;;1.54;81.00;100999.91;5091723;28;20204;-73
2023/11/19 00:52:41;;;;;;;34.27;19.53;;;;;;;1.55;80.14;100999.97;5091286;28;20225;-73
2023/11/19 00:55:11;;;;;;;36.60;20.10;;;;;;;1.61;80.71;100994.25;5091726;28;20212;-73
2023/11/19 00:57:39;;;;;;;32.60;20.30;;;;;;;1.62;81.13;100998.53;5091510;28;20216;-73
2023/11/19 01:00:17;;;;;;;34.57;21.10;;;;;;;1.60;80.50;100988.31;5091792;28;20358;-73
2023/11/19 01:02:49;;;;;;;33.20;19.20;;;;;;;1.61;80.59;100964.63;5091628;28;20633;-73
2023/11/19 01:05:21;;;;;;;32.60;19.13;;;;;;;1.67;80.76;100969.09;5095699;28;20211;-71
2023/11/19 01:07:53;;;;;;;32.83;20.83;;;;;;;1.66;79.76;100963.16;5098765;27;20220;-73
2023/11/19 01:10:25;;;;;;;33.20;19.43;;;;;;;1.59;80.73;100957.78;5096992;28;20267;-73
2023/11/19 01:12:54;;;;;;;31.83;18.67;;;;;;;1.61;81.10;100961.25;5105269;28;20222;-72
2023/11/19 01:15:22;;;;;;;34.23;20.70;;;;;;;1.63;80.66;100954.56;5106050;28;20228;-72
2023/11/19 01:17:51;;;;;;;31.97;19.30;;;;;;;1.65;80.29;100950.38;5091707;28;20223;-73
2023/11/19 01:20:21;;;;;;;33.87;19.73;;;;;;;1.64;80.72;100941.91;5110617;28;20200;-72
2023/11/19 01:22:54;;;;;;;34.73;21.10;;;;;;;1.65;80.17;100937.69;5103436;28;20223;-72
2023/11/19 01:25:23;;;;;;;33.60;20.03;;;;;;;1.63;80.75;100931.69;5110827;28;20204;-72
2023/11/19 01:27:53;;;;;;;35.27;20.33;;;;;;;1.63;80.41;100931.69;5104793;28;20232;-73
2023/11/19 01:30:21;;;;;;;33.67;19.30;;;;;;;1.61;81.08;100933.28;5095138;28;20284;-74
2023/11/19 01:32:49;;;;;;;36.83;19.63;;;;;;;1.61;81.38;100938.38;5103677;28;20702;-73
2023/11/19 01:35:17;;;;;;;34.63;21.30;;;;;;;1.57;80.76;100937.38;5095288;28;20200;-72
2023/11/19 01:37:45;;;;;;;35.13;19.27;;;;;;;1.60;81.19;100942.59;5095945;28;20644;-73
2023/11/19 01:40:13;;;;;;;35.43;19.90;;;;;;;1.65;80.66;100950.38;5109963;28;20284;-72
2023/11/19 01:42:41;;;;;;;34.27;20.67;;;;;;;1.67;80.64;100943.72;5105470;27;20200;-72
2023/11/19 01:45:23;;;;;;;39.13;21.33;;;;;;;1.74;80.80;100934.66;5107267;27;20203;-73
2023/11/19 01:47:51;;;;;;;35.07;20.43;;;;;;;1.76;80.93;100922.84;5109615;28;20208;-72
2023/11/19 01:50:20;;;;;;;34.33;20.37;;;;;;;1.82;80.87;100920.56;5114688;27;20203;-72
2023/11/19 01:52:48;;;;;;;33.00;19.33;;;;;;;1.84;80.17;100918.94;5102997;27;20216;-73
2023/11/19 01:55:16;;;;;;;38.40;20.60;;;;;;;1.83;81.02;100907.91;5103584;28;20204;-71
2023/11/19 01:57:44;;;;;;;36.77;20.77;;;;;;;1.83;80.20;100895.19;5101049;28;20208;-72
2023/11/19 02:00:15;;;;;;;36.37;19.87;;;;;;;1.88;80.86;100903.00;5107911;28;20254;-72
2023/11/19 02:02:45;;;;;;;33.07;20.27;;;;;;;1.87;80.68;100896.19;5096531;28;20228;-71
2023/11/19 02:05:14;;;;;;;34.93;19.97;;;;;;;1.85;80.68;100901.22;5095008;28;20250;-72
2023/11/19 02:07:41;;;;;;;37.47;22.27;;;;;;;1.84;79.90;100891.88;5101951;27;20243;-72
2023/11/19 02:10:14;;;;;;;32.70;19.90;;;;;;;1.85;80.81;100888.50;5099246;28;20243;-72
2023/11/19 02:12:44;;;;;;;36.20;20.97;;;;;;;1.86;80.45;100892.78;5114870;28;20223;-73
2023/11/19 02:15:14;;;;;;;33.83;19.77;;;;;;;1.92;80.72;100879.44;5095525;28;20236;-72
2023/11/19 02:17:43;;;;;;;33.37;18.40;;;;;;;1.91;80.33;100876.03;5106057;28;20946;-72
2023/11/19 02:20:14;;;;;;;30.60;18.40;;;;;;;1.90;80.34;100876.81;5100231;28;20203;-72
2023/11/19 02:22:42;;;;;;;34.20;19.50;;;;;;;1.90;79.32;100871.75;5105384;28;20204;-71
2023/11/19 02:25:18;;;;;;;31.23;18.90;;;;;;;1.88;79.89;100878.47;5108413;28;20230;-72
2023/11/19 02:27:55;;;;;;;33.20;18.80;;;;;;;1.88;79.22;100875.06;5102968;28;20211;-72
2023/11/19 02:30:26;;;;;;;31.97;19.07;;;;;;;1.89;80.12;100877.66;5099899;28;20196;-71
2023/11/19 02:32:57;;;;;;;32.30;18.43;;;;;;;1.89;79.40;100869.16;5107358;28;20298;-71
2023/11/19 02:35:25;;;;;;;34.20;20.83;;;;;;;1.90;80.44;100871.75;5111551;28;20210;-72
2023/11/19 02:37:54;;;;;;;31.43;19.70;;;;;;;1.90;79.70;100860.72;5103933;28;20211;-67
2023/11/19 02:40:23;;;;;;;33.53;20.13;;;;;;;1.89;80.38;100859.00;5098243;28;20344;-68
2023/11/19 02:42:55;;;;;;;36.63;20.73;;;;;;;1.85;79.96;100855.47;5105036;28;20899;-68
2023/11/19 02:45:23;;;;;;;35.60;19.67;;;;;;;1.86;79.89;100862.28;5098611;28;20545;-68
2023/11/19 02:47:52;;;;;;;30.73;18.00;;;;;;;1.85;79.68;100852.94;5108034;28;20208;-67
2023/11/19 02:50:24;;;;;;;34.07;19.47;;;;;;;1.88;80.51;100842.88;5093309;28;20204;-70
2023/11/19 02:52:56;;;;;;;35.70;18.87;;;;;;;1.89;79.48;100837.00;5093291;28;20217;-69
2023/11/19 02:55:27;;;;;;;32.20;18.00;;;;;;;1.87;79.72;100825.88;5093666;28;20219;-66
2023/11/19 02:57:59;;;;;;;32.80;19.20;;;;;;;1.91;80.32;100830.31;5093609;28;20209;-68
2023/11/19 03:00:34;;;;;;;32.50;18.43;;;;;;;1.93;79.57;100821.03;5102633;28;20195;-67
2023/11/19 03:03:09;;;;;;;32.00;18.27;;;;;;;1.94;79.86;100816.81;5107082;28;20191;-67
2023/11/19 03:05:40;;;;;;;32.17;18.77;;;;;;;1.94;79.84;100814.28;5102586;28;20212;-67
2023/11/19 03:08:08;;;;;;;32.27;18.83;;;;;;;1.93;79.84;100810.88;5095775;28;20571;-68
2023/11/19 03:10:36;;;;;;;29.90;17.70;;;;;;;1.96;80.60;100809.25;5102836;28;20711;-68
2023/11/19 03:13:05;;;;;;;34.03;19.30;;;;;;;1.98;80.37;100812.72;5093299;28;20679;-68
2023/11/19 03:15:33;;;;;;;31.30;18.60;;;;;;;1.98;80.76;100803.41;5093122;28;20262;-69
2023/11/19 03:18:02;;;;;;;32.93;19.40;;;;;;;1.96;79.48;100799.09;5097089;28;20200;-69
2023/11/19 03:20:30;;;;;;;32.93;18.70;;;;;;;1.96;79.45;100794.88;5096957;28;20295;-68
2023/11/19 03:22:58;;;;;;;31.73;19.73;;;;;;;1.94;80.05;100791.41;5105651;28;20207;-68
2023/11/19 03:25:26;;;;;;;31.80;17.93;;;;;;;1.96;80.34;100779.63;5118280;27;20207;-68
2023/11/19 03:27:55;;;;;;;32.03;18.23;;;;;;;1.97;79.66;100772.88;5122526;27;20615;-67
2023/11/19 03:30:24;;;;;;;29.23;16.73;;;;;;;1.99;80.25;100769.56;5095593;28;20201;-67
2023/11/19 03:33:02;;;;;;;26.10;15.10;;;;;;;1.97;79.55;100771.19;5103649;28;20252;-68
2023/11/19 03:35:31;;;;;;;26.73;15.23;;;;;;;1.97;79.13;100770.31;5099071;27;20633;-69
2023/11/19 03:37:59;;;;;;;23.60;14.63;;;;;;;1.91;78.82;100778.59;5100922;28;20204;-68
2023/11/19 03:40:27;;;;;;;24.03;14.40;;;;;;;1.80;78.60;100768.03;5107360;28;20269;-66
2023/11/19 03:42:57;;;;;;;22.13;13.47;;;;;;;1.79;79.64;100768.84;5093362;28;20204;-69
2023/11/19 03:45:26;;;;;;;23.63;14.10;;;;;;;1.78;79.91;100768.81;5112798;28;20196;-69
2023/11/19 03:47:54;;;;;;;26.17;14.90;;;;;;;1.82;80.29;100766.44;5109931;28;20196;-74
2023/11/19 03:50:23;;;;;;;26.90;15.37;;;;;;;1.86;80.02;100764.88;5104093;28;20253;-75
2023/11/19 03:52:50;;;;;;;23.83;14.17;;;;;;;1.88;79.46;100751.41;5126003;27;20253;-74
2023/11/19 03:55:19;;;;;;;28.33;15.10;;;;;;;1.90;80.06;100759.94;5096425;28;20209;-74
2023/11/19 03:57:48;;;;;;;26.00;15.40;;;;;;;1.91;80.04;100746.44;5100390;28;20204;-75
2023/11/19 04:00:17;;;;;;;28.30;15.80;;;;;;;1.94;79.51;100732.94;5101742;28;20207;-75
2023/11/19 04:02:48;;;;;;;26.47;15.83;;;;;;;1.94;79.54;100725.34;5106885;28;20201;-75
2023/11/19 04:05:18;;;;;;;27.90;15.73;;;;;;;1.97;79.76;100732.19;5096128;28;20293;-75
2023/11/19 04:07:47;;;;;;;25.00;14.87;;;;;;;1.99;78.93;100728.91;5109768;28;20300;-75
2023/11/19 04:10:16;;;;;;;27.57;16.03;;;;;;;1.96;79.15;100727.94;5099568;28;20602;-73
2023/11/19 04:12:44;;;;;;;26.13;14.47;;;;;;;1.99;78.94;100718.75;5113693;28;20642;-75
2023/11/19 04:15:13;;;;;;;26.43;15.67;;;;;;;2.00;79.12;100705.22;5101665;27;20266;-75
2023/11/19 04:17:41;;;;;;;26.83;15.97;;;;;;;2.04;79.99;100711.28;5102527;27;20210;-74
2023/11/19 04:20:13;;;;;;;26.30;15.27;;;;;;;2.00;79.31;100709.44;5096655;28;20250;-74
2023/11/19 04:22:42;;;;;;;27.77;15.20;;;;;;;1.97;78.98;100704.25;5092953;28;20261;-75
2023/11/19 04:25:10;;;;;;;26.03;15.40;;;;;;;1.96;78.95;100697.44;5106938;28;20215;-75
2023/11/19 04:27:39;;;;;;;23.50;14.07;;;;;;;1.90;79.66;100688.78;5093237;28;20208;-74
2023/11/19 04:30:10;;;;;;;27.93;15.47;;;;;;;1.94;79.67;100695.69;5095739;28;20227;-76
2023/11/19 04:32:39;;;;;;;27.13;15.50;;;;;;;1.94;79.49;100683.00;5118957;27;20207;-74
2023/11/19 04:35:09;;;;;;;26.80;14.77;;;;;;;1.90;78.87;100680.31;5097893;28;20239;-75
2023/11/19 04:37:38;;;;;;;26.27;15.53;;;;;;;1.85;79.02;100675.06;5095453;28;20699;-75
2023/11/19 04:40:08;;;;;;;23.33;14.67;;;;;;;1.87;79.24;100670.03;5093145;28;20223;-74
2023/11/19 04:42:36;;;;;;;26.87;15.60;;;;;;;1.88;80.38;100675.19;5108523;28;20257;-73
2023/11/19 04:45:06;;;;;;;28.00;15.77;;;;;;;1.89;80.08;100668.41;5093430;28;20219;-75
2023/11/19 04:47:35;;;;;;;26.77;15.67;;;;;;;1.90;79.51;100659.97;5112337;28;20200;-75
2023/11/19 04:50:04;;;;;;;28.90;16.80;;;;;;;1.88;79.55;100665.03;5112575;28;20226;-75
2023/11/19 04:52:32;;;;;;;25.83;15.30;;;;;;;1.89;79.76;100664.19;5112508;28;20690;-75
2023/11/19 04:55:01;;;;;;;26.77;15.13;;;;;;;1.93;80.24;100663.47;5107162;28;20228;-75
2023/11/19 04:57:32;;;;;;;25.37;14.73;;;;;;;1.94;80.67;100656.72;5096230;28;20230;-71
2023/11/19 05:00:00;;;;;;;27.23;14.73;;;;;;;1.97;80.24;100653.44;5091317;28;20212;-71
2023/11/19 05:02:28;;;;;;;22.73;13.90;;;;;;;2.01;80.23;100655.25;5102956;28;20220;-74
2023/11/19 05:04:56;;;;;;;21.50;13.43;;;;;;;2.03;79.75;100653.63;5100458;28;20690;-71
2023/11/19 05:07:24;;;;;;;20.63;13.47;;;;;;;2.05;78.88;100647.75;5095550;28;20246;-72
2023/11/19 05:09:53;;;;;;;23.07;13.33;;;;;;;2.06;78.44;100635.91;5127484;27;21039;-72
2023/11/19 05:12:22;;;;;;;22.97;13.63;;;;;;;2.07;78.39;100635.13;5116127;28;20200;-73
2023/11/19 05:14:50;;;;;;;21.63;13.00;;;;;;;2.00;77.73;100628.13;5099723;28;20267;-73
2023/11/19 05:17:19;;;;;;;20.03;12.53;;;;;;;1.95;78.63;100627.94;5095573;28;20204;-72
2023/11/19 05:19:48;;;;;;;23.80;13.50;;;;;;;1.91;79.16;100624.47;5095151;28;20207;-71
2023/11/19 05:22:16;;;;;;;21.73;12.63;;;;;;;1.94;79.07;100623.69;5094720;28;20200;-71
2023/11/19 05:24:44;;;;;;;21.10;12.40;;;;;;;1.96;79.35;100618.66;5097016;28;20205;-72
2023/11/19 05:27:13;;;;;;;20.93;12.73;;;;;;;1.95;78.62;100625.41;5109515;28;20218;-73
2023/11/19 05:29:43;;;;;;;21.93;13.57;;;;;;;1.93;78.78;100617.75;5119244;27;20282;-71
2023/11/19 05:32:12;;;;;;;21.33;13.07;;;;;;;1.87;78.54;100615.00;5129778;27;20238;-72
2023/11/19 05:34:40;;;;;;;23.07;13.23;;;;;;;1.88;79.84;100619.28;5111214;28;20352;-72
2023/11/19 05:37:11;;;;;;;22.90;13.37;;;;;;;1.89;79.20;100605.75;5129828;27;20205;-74
2023/11/19 05:39:39;;;;;;;23.73;14.07;;;;;;;1.89;78.34;100612.53;5108393;28;20206;-72
2023/11/19 05:42:07;;;;;;;24.03;13.00;;;;;;;1.90;79.22;100607.47;5102295;28;20197;-72
2023/11/19 05:44:35;;;;;;;25.13;14.20;;;;;;;1.93;79.22;100606.72;5102884;27;20250;-72
2023/11/19 05:47:11;;;;;;;24.17;14.00;;;;;;;1.98;78.89;100604.31;5106740;28;20208;-71
2023/11/19 05:49:43;;;;;;;22.87;12.93;;;;;;;1.99;79.47;100606.94;5097578;28;20208;-72
2023/11/19 05:52:12;;;;;;;24.77;13.80;;;;;;;1.98;78.73;100607.72;5095215;28;20193;-72
2023/11/19 05:54:41;;;;;;;26.53;14.60;;;;;;;1.96;78.51;100596.66;5095776;28;20263;-74
2023/11/19 05:57:13;;;;;;;23.57;13.63;;;;;;;1.99;79.54;100589.13;5098658;28;20287;-74
2023/11/19 05:59:42;;;;;;;24.03;13.17;;;;;;;2.01;79.41;100599.34;5101766;28;20201;-72
2023/11/19 06:02:11;;;;;;;24.90;12.97;;;;;;;2.02;78.54;100601.06;5110611;28;20208;-71
2023/11/19 06:04:41;;;;;;;20.73;13.27;;;;;;;2.01;79.06;100595.13;5117384;27;20210;-73
2023/11/19 06:07:09;;;;;;;23.67;14.23;;;;;;;1.98;79.23;100597.56;5119392;27;20208;-73
2023/11/19 06:09:37;;;;;;;24.03;13.33;;;;;;;2.01;78.48;100605.28;5106309;27;20218;-72
2023/11/19 06:12:07;;;;;;;20.47;12.17;;;;;;;2.02;79.11;100603.59;5109082;27;20200;-74
2023/11/19 06:14:35;;;;;;;21.07;12.53;;;;;;;2.02;79.26;100606.13;5114873;28;20638;-73
2023/11/19 06:17:04;;;;;;;21.57;12.60;;;;;;;1.99;79.28;100603.50;5104508;28;20253;-72
2023/11/19 06:19:35;;;;;;;17.93;11.47;;;;;;;1.97;78.75;100595.84;5112822;28;20283;-72
2023/11/19 06:22:03;;;;;;;17.03;10.77;;;;;;;1.97;78.30;100598.38;5114710;28;20232;-73
2023/11/19 06:24:31;;;;;;;18.53;11.10;;;;;;;1.89;77.68;100585.44;5114614;28;20230;-72
2023/11/19 06:26:59;;;;;;;15.90;10.30;;;;;;;1.86;77.59;100579.38;5114841;27;20652;-72
2023/11/19 06:29:30;;;;;;;13.97;9.03;;;;;;;1.79;78.12;100577.47;5114416;27;20291;-73
2023/11/19 06:31:59;;;;;;;16.13;10.40;;;;;;;1.73;77.87;100577.25;5114410;28;20212;-72
2023/11/19 06:34:42;;;;;;;12.63;8.13;;;;;;;1.70;77.69;100572.94;5103771;28;20545;-73
2023/11/19 06:37:10;;;;;;;11.00;7.33;;;;;;;1.65;77.73;100570.25;5105292;28;20207;-73
2023/11/19 06:39:39;;;;;;;12.33;8.00;;;;;;;1.69;78.02;100571.19;5112959;28;20208;-73
2023/11/19 06:42:07;;;;;;;13.53;8.97;;;;;;;1.70;77.19;100562.78;5110017;28;20200;-70
2023/11/19 06:44:35;;;;;;;13.27;9.07;;;;;;;1.71;77.97;100554.34;5114349;28;20544;-71
2023/11/19 06:47:04;;;;;;;13.97;8.70;;;;;;;1.74;77.40;100554.44;5114089;28;20214;-72
2023/11/19 06:49:31;;;;;;;13.63;8.87;;;;;;;1.72;77.52;100542.50;5111124;28;20232;-72
2023/11/19 06:52:01;;;;;;;14.83;9.37;;;;;;;1.73;78.08;100539.13;5094160;28;20287;-73
2023/11/19 06:54:31;;;;;;;14.90;8.80;;;;;;;1.74;77.70;100536.66;5096866;28;20254;-72
2023/11/19 06:56:59;;;;;;;13.90;8.43;;;;;;;1.72;77.11;100543.38;5113230;27;20207;-73
2023/11/19 06:59:29;;;;;;;9.47;6.53;;;;;;;1.69;76.92;100536.53;5104198;27;20204;-71
2023/11/19 07:01:57;;;;;;;11.77;7.80;;;;;;;1.67;76.85;100527.97;5111548;27;20233;-72
2023/11/19 07:04:24;;;;;;;12.83;7.73;;;;;;;1.71;77.06;100533.16;5120537;27;20208;-71
2023/11/19 07:06:53;;;;;;;13.40;8.13;;;;;;;1.73;77.10;100528.97;5093335;28;20203;-71
2023/11/19 07:09:23;;;;;;;13.07;8.23;;;;;;;1.76;77.48;100524.88;5104988;28;20249;-72
2023/11/19 07:11:51;;;;;;;13.47;8.63;;;;;;;1.78;76.63;100524.94;5101231;28;20197;-72
2023/11/19 07:14:19;;;;;;;10.80;7.87;;;;;;;1.77;76.57;100515.56;5093302;28;20232;-72
2023/11/19 07:16:48;;;;;;;11.50;8.00;;;;;;;1.75;76.28;100515.53;5097358;28;20219;-73
2023/11/19 07:19:16;;;;;;;11.93;8.07;;;;;;;1.65;76.63;100500.81;5101364;27;20209;-73
2023/11/19 07:21:45;;;;;;;12.37;8.17;;;;;;;1.68;76.67;100518.69;5097700;28;20205;-74
2023/11/19 07:24:14;;;;;;;10.93;8.03;;;;;;;1.69;77.15;100522.94;5094823;28;20222;-73
2023/11/19 07:26:45;;;;;;;10.33;7.50;;;;;;;1.70;77.49;100514.53;5109047;28;20224;-75
2023/11/19 07:29:13;;;;;;;11.20;7.07;;;;;;;1.71;77.40;100511.16;5094079;28;20200;-76
2023/11/19 07:31:55;;;;;;;9.37;6.43;;;;;;;1.66;77.07;100512.72;5095743;28;20232;-74
2023/11/19 07:34:25;;;;;;;9.40;7.00;;;;;;;1.62;77.23;100509.22;5105706;28;20670;-74
2023/11/19 07:36:57;;;;;;;9.53;6.97;;;;;;;1.65;77.50;100506.75;5102200;28;20252;-74
2023/11/19 07:39:25;;;;;;;9.30;6.77;;;;;;;1.67;76.76;100504.25;5101539;28;20200;-73
2023/11/19 07:41:54;;;;;;;10.17;7.40;;;;;;;1.67;76.91;100501.72;5110814;28;20203;-73
2023/11/19 07:44:26;;;;;;;9.70;7.13;;;;;;;1.70;77.30;100499.28;5101017;28;20200;-75
2023/11/19 07:46:54;;;;;;;10.27;7.77;;;;;;;1.76;77.03;100494.38;5114524;27;20200;-72
2023/11/19 07:49:22;;;;;;;10.73;7.83;;;;;;;1.79;76.32;100491.94;5097849;28;20219;-74
2023/11/19 07:51:50;;;;;;;11.33;7.57;;;;;;;1.82;76.42;100488.63;5109879;27;20208;-75
2023/11/19 07:54:18;;;;;;;9.77;7.47;;;;;;;1.82;75.95;100479.34;5119465;27;20212;-74
2023/11/19 07:56:46;;;;;;;9.93;6.77;;;;;;;1.83;75.78;100477.66;5114051;28;20268;-75
2023/11/19 07:59:16;;;;;;;10.93;7.53;;;;;;;1.77;75.31;100463.09;5107251;28;20226;-74
2023/11/19 08:01:44;;;;;;;10.70;7.43;;;;;;;1.82;76.02;100463.22;5106490;28;20656;-75
2023/11/19 08:04:11;;;;;;;10.53;7.60;;;;;;;1.91;76.15;100458.41;5093503;28;20205;-75
2023/11/19 08:06:40;;;;;;;11.10;8.47;;;;;;;1.91;75.72;100464.38;5103437;27;20211;-75
2023/11/19 08:09:13;;;;;;;11.20;7.97;;;;;;;1.95;74.68;100460.22;5119859;27;20200;-73
2023/11/19 08:11:42;;;;;;;11.20;8.47;;;;;;;2.00;74.96;100453.63;5106153;27;20549;-72
2023/11/19 08:14:11;;;;;;;11.03;7.93;;;;;;;2.04;75.25;100457.97;5096943;28;20236;-75
2023/11/19 08:16:41;;;;;;;11.13;7.67;;;;;;;2.03;74.41;100447.78;5099446;27;20226;-77
2023/11/19 08:19:09;;;;;;;10.47;7.83;;;;;;;2.09;74.84;100453.00;5102047;28;20659;-76
2023/11/19 08:21:37;;;;;;;10.10;7.20;;;;;;;2.12;74.91;100453.09;5097714;28;20242;-74
2023/11/19 08:24:06;;;;;;;12.43;8.07;;;;;;;2.14;75.17;100437.09;5093416;28;20216;-74
2023/11/19 08:26:34;;;;;;;12.57;7.97;;;;;;;2.22;75.25;100436.44;5093374;28;20209;-74
2023/11/19 08:29:02;;;;;;;11.50;8.13;;;;;;;2.26;74.28;100423.88;5092716;28;20667;-71
2023/11/19 08:31:33;;;;;;;9.90;7.17;;;;;;;2.23;74.27;100415.28;5103694;27;20974;-77
2023/11/19 08:34:03;;;;;;;11.07;7.93;;;;;;;2.26;74.01;100423.00;5099380;28;20236;-76
2023/11/19 08:36:32;;;;;;;12.70;7.80;;;;;;;2.25;74.81;100423.84;5104455;28;20295;-73
2023/11/19 08:39:00;;;;;;;10.47;7.47;;;;;;;2.36;74.57;100415.69;5094440;28;20544;-75
2023/11/19 08:41:31;;;;;;;11.60;7.93;;;;;;;2.45;74.87;100409.13;5093094;28;20200;-74
2023/11/19 08:43:59;;;;;;;11.07;8.27;;;;;;;2.56;74.42;100418.75;5108679;28;20231;-74
2023/11/19 08:46:27;;;;;;;11.80;8.30;;;;;;;2.61;74.07;100417.22;5099886;28;20261;-75
2023/11/19 08:48:56;;;;;;;10.73;8.20;;;;;;;2.57;72.66;100412.81;5109418;28;20220;-76
2023/11/19 08:51:28;;;;;;;10.20;8.23;;;;;;;2.56;73.43;100421.28;5092662;28;20192;-74
2023/11/19 08:53:57;;;;;;;12.67;8.17;;;;;;;2.52;73.62;100406.78;5092667;28;20359;-74
2023/11/19 08:56:25;;;;;;;13.07;8.40;;;;;;;2.50;72.84;100412.63;5091836;28;20297;-74
2023/11/19 08:58:54;;;;;;;9.83;7.67;;;;;;;2.43;73.90;100401.47;5092423;28;20283;-74
2023/11/19 09:01:24;;;;;;;12.17;8.40;;;;;;;2.40;73.90;100406.47;5106405;28;20199;-74
2023/11/19 09:03:53;;;;;;;11.27;8.43;;;;;;;2.47;73.59;100403.25;5092169;28;20644;-75
2023/11/19 09:06:21;;;;;;;11.30;7.90;;;;;;;2.52;73.53;100381.34;5108121;28;20204;-75
2023/11/19 09:08:50;;;;;;;12.47;8.57;;;;;;;2.59;73.14;100373.03;5104432;28;20204;-74
2023/11/19 09:11:19;;;;;;;12.83;8.20;;;;;;;2.68;72.75;100377.50;5125214;27;20292;-72
2023/11/19 09:13:47;;;;;;;11.40;7.93;;;;;;;2.67;72.55;100376.66;5105267;27;20265;-73
2023/11/19 09:16:15;;;;;;;10.20;7.70;;;;;;;2.68;72.76;100362.22;5091814;28;20265;-74
2023/11/19 09:18:43;;;;;;;12.33;8.53;;;;;;;2.71;72.15;100357.22;5091933;28;20205;-75
2023/11/19 09:21:12;;;;;;;12.47;8.10;;;;;;;2.73;73.61;100352.19;5091219;28;20208;-75
2023/11/19 09:23:40;;;;;;;12.20;7.60;;;;;;;2.76;73.57;100340.41;5103693;28;20555;-73
2023/11/19 09:26:11;;;;;;;10.37;7.63;;;;;;;2.76;72.66;100354.78;5112826;28;20651;-75
2023/11/19 09:28:41;;;;;;;10.50;7.63;;;;;;;2.70;73.07;100345.34;5100551;28;20682;-75
2023/11/19 09:31:17;;;;;;;11.03;8.20;;;;;;;2.64;73.05;100346.03;5122660;28;20207;-74
2023/11/19 09:33:45;;;;;;;12.17;8.10;;;;;;;2.61;73.56;100340.00;5107017;28;20663;-75
2023/11/19 09:36:16;;;;;;;11.50;8.13;;;;;;;2.50;73.36;100336.34;5091379;28;20217;-74
2023/11/19 09:38:46;;;;;;;12.47;8.43;;;;;;;2.42;73.68;100324.28;5096819;28;20204;-75
2023/11/19 09:41:16;;;;;;;11.50;8.20;;;;;;;2.39;72.98;100329.31;5103528;27;20216;-74
2023/11/19 09:43:45;;;;;;;13.47;8.10;;;;;;;2.36;74.92;100329.22;5097255;28;20216;-74
2023/11/19 09:46:16;;;;;;;12.93;8.13;;;;;;;2.30;74.42;100329.06;5110034;28;20250;-74
2023/11/19 09:48:45;;;;;;;13.00;8.27;;;;;;;2.28;74.31;100333.22;5115875;28;20204;-74
2023/11/19 09:51:13;;;;;;;12.87;8.57;;;;;;;2.33;75.28;100318.13;5112705;27;20201;-74
2023/11/19 09:53:42;;;;;;;12.37;8.00;;;;;;;2.33;75.13;100315.56;5105238;28;20625;-74
2023/11/19 09:56:13;;;;;;;12.93;9.10;;;;;;;2.30;75.12;100311.25;5099476;28;20251;-75
2023/11/19 09:58:44;;;;;;;14.93;9.50;;;;;;;2.34;75.36;100312.19;5095594;28;20682;-75
2023/11/19 10:01:12;;;;;;;13.50;8.40;;;;;;;2.28;75.84;100302.72;5104099;28;20257;-75
2023/11/19 10:03:47;;;;;;;13.53;8.77;;;;;;;2.28;75.60;100302.72;5103914;28;20291;-75
2023/11/19 10:06:18;;;;;;;13.93;8.90;;;;;;;2.24;75.93;100306.00;5095795;28;20656;-75
2023/11/19 10:08:46;;;;;;;12.97;9.43;;;;;;;2.21;76.63;100294.88;5105867;28;20231;-74
2023/11/19 10:11:18;;;;;;;12.50;8.43;;;;;;;2.17;76.07;100289.75;5094655;28;20243;-73
2023/11/19 10:13:47;;;;;;;11.90;8.57;;;;;;;2.25;76.47;100287.41;5097450;28;20211;-74
2023/11/19 10:16:20;;;;;;;13.93;9.63;;;;;;;2.28;76.27;100279.84;5108249;28;20255;-74
2023/11/19 10:18:50;;;;;;;13.63;9.10;;;;;;;2.34;75.84;100274.06;5098503;28;20208;-74
2023/11/19 10:21:19;;;;;;;13.60;9.03;;;;;;;2.36;77.29;100268.19;5107536;28;20291;-73
2023/11/19 10:23:51;;;;;;;13.30;9.00;;;;;;;2.36;76.28;100260.56;5094985;28;20212;-72
2023/11/19 10:26:23;;;;;;;14.43;9.47;;;;;;;2.39;76.82;100262.31;5096936;27;20201;-76
2023/11/19 10:28:53;;;;;;;14.63;9.33;;;;;;;2.44;75.53;100265.84;5104796;28;20208;-74
2023/11/19 10:31:24;;;;;;;15.10;8.97;;;;;;;2.46;75.47;100255.69;5116125;27;20688;-76
2023/11/19 10:33:53;;;;;;;15.37;9.33;;;;;;;2.41;75.94;100248.81;5110379;27;20667;-74
2023/11/19 10:36:23;;;;;;;13.67;9.00;;;;;;;2.41;75.46;100250.50;5095241;28;20310;-76
2023/11/19 10:38:56;;;;;;;14.13;9.87;;;;;;;2.41;76.60;100245.41;5127470;27;20681;-74
2023/11/19 10:41:28;;;;;;;14.07;9.90;;;;;;;2.42;76.50;100231.88;5115312;28;20199;-76
2023/11/19 10:43:57;;;;;;;13.73;9.93;;;;;;;2.45;76.97;100228.56;5118185;27;20201;-76
2023/11/19 10:46:37;;;;;;;14.33;9.90;;;;;;;2.48;75.47;100231.19;5121473;27;20609;-73
2023/11/19 10:49:06;;;;;;;14.47;9.70;;;;;;;2.40;75.86;100224.22;5107133;27;20280;-74
2023/11/19 10:51:35;;;;;;;14.53;9.23;;;;;;;2.42;75.68;100217.47;5115625;27;20655;-73
2023/11/19 10:54:05;;;;;;;13.07;9.13;;;;;;;2.35;76.14;100205.44;5114606;28;20211;-74
2023/11/19 10:56:35;;;;;;;11.93;9.07;;;;;;;2.31;75.19;100203.66;5108610;28;20221;-74
2023/11/19 10:59:07;;;;;;;15.20;9.23;;;;;;;2.26;75.89;100200.13;5093300;28;20295;-74
2023/11/19 11:01:46;;;;;;;12.67;8.80;;;;;;;2.27;75.63;100191.69;5113430;28;20203;-73
2023/11/19 11:04:16;;;;;;;13.70;9.87;;;;;;;2.25;77.09;100175.56;5104147;27;20655;-75
2023/11/19 11:06:45;;;;;;;12.17;9.03;;;;;;;2.27;76.23;100181.50;5105514;27;20212;-73
2023/11/19 11:09:15;;;;;;;14.27;9.50;;;;;;;2.30;76.69;100180.75;5121201;27;20235;-73
2023/11/19 11:11:48;;;;;;;13.27;9.20;;;;;;;2.28;76.40;100164.56;5092575;28;20197;-73
2023/11/19 11:14:21;;;;;;;12.33;9.00;;;;;;;2.32;76.88;100159.63;5100752;27;20242;-72
2023/11/19 11:16:50;;;;;;;13.87;8.97;;;;;;;2.30;76.49;100151.09;5107466;27;20605;-74
2023/11/19 11:19:19;;;;;;;15.00;9.77;;;;;;;2.25;76.02;100147.59;5114391;27;20560;-75
2023/11/19 11:21:53;;;;;;;13.37;9.20;;;;;;;2.22;76.47;100134.78;5113918;27;20779;-74
2023/11/19 11:24:40;;;;;;;15.57;10.23;;;;;;;2.25;77.07;100145.03;5112906;27;20563;-73
2023/11/19 11:27:35;;;;;;;16.27;10.27;;;;;;;2.21;77.19;100137.28;5108935;27;20214;-72
2023/11/19 11:30:12;;;;;;;15.17;9.43;;;;;;;2.22;77.23;100131.41;5097167;27;20288;-73
2023/11/19 11:32:46;;;;;;;13.70;9.90;;;;;;;2.21;76.51;100122.03;5101804;28;20200;-73